createdAt,value
2022-11-07T00:00:13.365Z,6.59
2022-11-07T00:02:58.952Z,6.60
2022-11-07T00:05:44.428Z,6.68
2022-11-07T00:08:32.135Z,6.77
2022-11-07T00:11:17.480Z,6.85
2022-11-07T00:14:02.949Z,6.94
2022-11-07T00:16:49.108Z,6.92
2022-11-07T00:19:34.694Z,7.00
2022-11-07T00:22:20.036Z,7.07
2022-11-07T00:25:06.050Z,7.06
2022-11-07T00:27:51.458Z,7.13
2022-11-07T00:30:37.145Z,7.20
2022-11-07T00:33:22.680Z,7.27
2022-11-07T00:36:09.537Z,7.33
2022-11-07T00:38:55.549Z,7.34
2022-11-07T00:41:41.388Z,7.39
2022-11-07T00:44:26.819Z,7.42
2022-11-07T00:47:12.352Z,7.51
2022-11-07T00:49:57.708Z,7.59
2022-11-07T00:52:43.019Z,7.70
2022-11-07T00:55:28.348Z,7.74
2022-11-07T00:58:14.669Z,7.88
2022-11-07T01:01:00.231Z,7.94
2022-11-07T01:04:05.470Z,8.02
2022-11-07T01:06:51.138Z,8.07
2022-11-07T01:09:36.393Z,8.14
2022-11-07T01:12:21.788Z,8.22
2022-11-07T01:15:07.851Z,8.33
2022-11-07T01:17:53.275Z,8.36
2022-11-07T01:20:39.205Z,8.40
2022-11-07T01:23:24.482Z,8.40
2022-11-07T01:26:12.358Z,8.43
2022-11-07T01:28:57.621Z,8.47
2022-11-07T01:31:43.122Z,8.49
2022-11-07T01:34:28.385Z,8.49
2022-11-07T01:37:13.847Z,8.59
2022-11-07T01:39:59.341Z,8.67
2022-11-07T01:42:44.732Z,8.73
2022-11-07T01:45:33.870Z,8.79
2022-11-07T01:48:19.545Z,8.83
2022-11-07T01:51:05.835Z,8.94
2022-11-07T01:53:54.541Z,9.02
2022-11-07T01:56:43.330Z,9.04
2022-11-07T01:59:31.761Z,9.03
2022-11-07T02:02:17.094Z,9.02
2022-11-07T02:05:05.910Z,9.03
2022-11-07T02:07:52.659Z,9.05
2022-11-07T02:10:41.102Z,9.06
2022-11-07T02:13:28.681Z,9.07
2022-11-07T02:16:14.455Z,9.10
2022-11-07T02:19:00.499Z,9.15
2022-11-07T02:22:11.529Z,9.16
2022-11-07T02:25:00.549Z,9.19
2022-11-07T02:27:49.587Z,9.21
2022-11-07T02:30:35.415Z,9.22
2022-11-07T02:33:23.665Z,9.21
2022-11-07T02:36:15.250Z,9.26
2022-11-07T02:39:00.907Z,9.17
2022-11-07T02:41:48.165Z,9.07
2022-11-07T02:44:34.477Z,9.09
2022-11-07T02:47:20.260Z,9.13
2022-11-07T02:50:10.655Z,9.11
2022-11-07T02:52:56.301Z,9.05
2022-11-07T02:55:41.454Z,9.08
2022-11-07T02:58:27.000Z,9.25
2022-11-07T03:01:13.245Z,9.38
2022-11-07T03:03:58.744Z,9.54
2022-11-07T03:06:44.173Z,9.65
2022-11-07T03:09:29.534Z,9.72
2022-11-07T03:12:14.827Z,9.74
2022-11-07T03:15:00.234Z,9.69
2022-11-07T03:17:45.971Z,9.64
2022-11-07T03:20:31.445Z,9.61
2022-11-07T03:23:17.288Z,9.56
2022-11-07T03:26:04.852Z,9.44
2022-11-07T03:28:50.337Z,9.33
2022-11-07T03:31:35.968Z,9.26
2022-11-07T03:34:21.726Z,9.20
2022-11-07T03:37:07.120Z,9.16
2022-11-07T03:39:52.581Z,9.13
2022-11-07T03:42:42.085Z,9.11
2022-11-07T03:45:27.677Z,9.09
2022-11-07T03:48:12.892Z,9.07
2022-11-07T03:50:58.394Z,9.10
2022-11-07T03:53:43.618Z,9.30
2022-11-07T03:56:29.043Z,9.35
2022-11-07T03:59:14.441Z,9.38
2022-11-07T04:01:59.709Z,9.61
2022-11-07T04:04:44.970Z,9.82
2022-11-07T04:07:30.425Z,9.90
2022-11-07T04:10:16.155Z,10.07
2022-11-07T04:13:19.829Z,10.15
2022-11-07T04:16:23.863Z,10.25
2022-11-07T04:19:09.505Z,10.31
2022-11-07T04:21:54.758Z,10.39
2022-11-07T04:24:45.709Z,10.46
2022-11-07T04:27:43.934Z,10.54
2022-11-07T04:30:30.118Z,10.60
2022-11-07T04:33:15.971Z,10.63
2022-11-07T04:36:01.686Z,10.63
2022-11-07T04:38:47.211Z,10.68
2022-11-07T04:41:32.902Z,10.68
2022-11-07T04:44:18.227Z,10.68
2022-11-07T04:47:03.685Z,10.72
2022-11-07T04:49:49.145Z,10.75
2022-11-07T04:52:34.454Z,10.86
2022-11-07T04:55:22.890Z,10.88
2022-11-07T04:58:08.919Z,10.91
2022-11-07T05:00:54.267Z,10.94
2022-11-07T05:03:42.058Z,10.94
2022-11-07T05:06:27.972Z,11.00
2022-11-07T05:09:18.303Z,11.04
2022-11-07T05:12:03.939Z,11.08
2022-11-07T05:14:49.623Z,11.12
2022-11-07T05:17:35.087Z,11.14
2022-11-07T05:20:35.331Z,11.14
2022-11-07T05:23:22.072Z,11.10
2022-11-07T05:26:07.492Z,11.08
2022-11-07T05:28:52.950Z,11.06
2022-11-07T05:31:38.325Z,11.02
2022-11-07T05:34:23.684Z,11.02
2022-11-07T05:37:13.179Z,11.02
2022-11-07T05:39:58.789Z,11.01
2022-11-07T05:42:44.492Z,11.03
2022-11-07T05:45:31.015Z,11.05
2022-11-07T05:48:16.558Z,11.11
2022-11-07T05:51:02.430Z,11.12
2022-11-07T05:53:47.999Z,11.15
2022-11-07T05:56:33.560Z,11.16
2022-11-07T05:59:18.900Z,11.15
2022-11-07T06:02:04.363Z,11.18
2022-11-07T06:04:50.099Z,11.21
2022-11-07T06:07:37.032Z,11.21
2022-11-07T06:10:23.837Z,11.22
2022-11-07T06:13:13.130Z,11.29
2022-11-07T06:15:59.067Z,11.33
2022-11-07T06:18:44.327Z,11.27
2022-11-07T06:21:30.817Z,11.21
2022-11-07T06:24:16.211Z,11.19
2022-11-07T06:27:01.706Z,11.20
2022-11-07T06:29:47.200Z,11.18
2022-11-07T06:32:33.168Z,11.16
2022-11-07T06:35:18.628Z,11.14
2022-11-07T06:38:06.887Z,11.28
2022-11-07T06:40:52.192Z,11.38
2022-11-07T06:43:38.333Z,11.46
2022-11-07T06:46:25.276Z,11.45
2022-11-07T06:49:11.425Z,11.45
2022-11-07T06:51:57.197Z,11.46
2022-11-07T06:54:43.452Z,11.54
2022-11-07T06:57:29.706Z,11.58
2022-11-07T07:00:16.282Z,11.57
2022-11-07T07:03:02.184Z,11.58
2022-11-07T07:05:47.791Z,11.58
2022-11-07T07:08:34.297Z,11.61
2022-11-07T07:11:19.809Z,11.63
2022-11-07T07:14:11.288Z,11.61
2022-11-07T07:16:59.361Z,11.60
2022-11-07T07:19:44.983Z,11.56
2022-11-07T07:22:30.177Z,11.56
2022-11-07T07:25:16.305Z,11.56
2022-11-07T07:28:01.842Z,11.59
2022-11-07T07:30:51.596Z,11.68
2022-11-07T07:33:37.881Z,11.75
2022-11-07T07:36:23.828Z,11.80
2022-11-07T07:39:09.441Z,11.82
2022-11-07T07:41:54.970Z,11.82
2022-11-07T07:44:41.745Z,11.85
2022-11-07T07:47:27.206Z,11.87
2022-11-07T07:50:13.439Z,11.89
2022-11-07T07:52:59.067Z,11.94
2022-11-07T07:55:45.133Z,12.07
2022-11-07T07:58:30.356Z,12.16
2022-11-07T08:01:15.868Z,12.14
2022-11-07T08:04:02.800Z,12.11
2022-11-07T08:06:48.601Z,12.09
2022-11-07T08:09:36.800Z,12.09
2022-11-07T08:12:22.361Z,12.06
2022-11-07T08:15:08.488Z,12.08
2022-11-07T08:17:54.181Z,12.08
2022-11-07T08:20:39.769Z,12.08
2022-11-07T08:23:25.644Z,12.06
2022-11-07T08:26:11.059Z,12.05
2022-11-07T08:28:56.493Z,12.08
2022-11-07T08:31:42.180Z,12.09
2022-11-07T08:34:27.555Z,12.18
2022-11-07T08:37:13.037Z,12.19
2022-11-07T08:39:58.241Z,12.26
2022-11-07T08:42:43.532Z,12.29
2022-11-07T08:45:29.111Z,12.29
2022-11-07T08:48:16.008Z,12.29
2022-11-07T08:51:04.162Z,12.29
2022-11-07T08:53:49.771Z,12.31
2022-11-07T08:56:35.027Z,12.38
2022-11-07T08:59:20.730Z,12.44
2022-11-07T09:05:11.448Z,12.56
2022-11-07T09:07:56.884Z,12.57
2022-11-07T09:10:42.500Z,12.57
2022-11-07T09:13:27.726Z,12.61
2022-11-07T09:16:17.516Z,12.67
2022-11-07T09:19:03.183Z,12.67
2022-11-07T09:21:49.282Z,12.68
2022-11-07T09:24:34.998Z,12.70
2022-11-07T09:27:20.315Z,12.74
2022-11-07T09:30:06.260Z,12.80
2022-11-07T09:32:55.604Z,12.85
2022-11-07T09:35:41.293Z,12.92
2022-11-07T09:38:27.800Z,12.95
2022-11-07T09:41:44.402Z,12.96
2022-11-07T09:44:39.997Z,12.94
2022-11-07T09:47:31.363Z,12.97
2022-11-07T09:50:35.759Z,12.99
2022-11-07T09:53:41.125Z,13.01
2022-11-07T09:56:29.456Z,13.04
2022-11-07T09:59:40.357Z,13.08
2022-11-07T10:02:30.509Z,13.17
2022-11-07T10:05:36.141Z,13.23
2022-11-07T10:08:43.773Z,13.26
2022-11-07T10:11:29.335Z,13.29
2022-11-07T10:14:17.614Z,13.36
2022-11-07T10:17:36.391Z,13.40
2022-11-07T10:21:16.094Z,13.41
2022-11-07T10:24:39.127Z,13.51
2022-11-07T10:27:27.083Z,13.54
2022-11-07T10:30:19.617Z,13.62
2022-11-07T10:33:14.036Z,13.63
2022-11-07T10:36:05.778Z,13.65
2022-11-07T10:38:52.353Z,13.67
2022-11-07T10:41:38.799Z,13.65
2022-11-07T10:44:27.513Z,13.66
2022-11-07T10:47:22.606Z,13.67
2022-11-07T10:50:23.364Z,13.67
2022-11-07T10:53:19.463Z,13.75
2022-11-07T10:56:11.246Z,13.80
2022-11-07T10:58:58.193Z,13.85
2022-11-07T11:01:51.170Z,13.88
2022-11-07T11:04:38.253Z,13.90
2022-11-07T11:07:34.371Z,13.94
2022-11-07T11:10:23.859Z,14.01
2022-11-07T11:13:45.893Z,14.14
2022-11-07T11:16:36.114Z,14.24
2022-11-07T11:19:40.873Z,14.32
2022-11-07T11:22:28.917Z,14.44
2022-11-07T11:25:20.853Z,14.49
2022-11-07T11:28:13.214Z,14.56
2022-11-07T11:31:34.156Z,14.51
2022-11-07T11:34:21.487Z,14.50
2022-11-07T11:37:20.043Z,14.47
2022-11-07T11:40:15.231Z,14.41
2022-11-07T11:43:11.890Z,14.38
2022-11-07T11:46:07.067Z,14.33
2022-11-07T11:49:14.683Z,14.32
2022-11-07T11:52:24.626Z,14.25
2022-11-07T11:55:19.936Z,14.20
2022-11-07T11:58:33.876Z,14.20
2022-11-07T12:01:37.740Z,14.18
2022-11-07T12:04:44.090Z,14.19
2022-11-07T12:07:35.684Z,14.24
2022-11-07T12:10:43.520Z,14.28
2022-11-07T12:13:59.181Z,14.25
2022-11-07T12:17:03.421Z,14.32
2022-11-07T12:19:59.116Z,14.45
2022-11-07T12:23:11.979Z,14.55
2022-11-07T12:26:15.618Z,14.64
2022-11-07T12:29:04.133Z,14.69
2022-11-07T12:31:52.636Z,14.73
2022-11-07T12:34:47.107Z,14.71
2022-11-07T12:37:44.988Z,14.68
2022-11-07T12:40:42.783Z,14.64
2022-11-07T12:43:45.057Z,14.54
2022-11-07T12:46:45.825Z,14.37
2022-11-07T12:49:52.420Z,14.24
2022-11-07T12:53:19.396Z,14.04
2022-11-07T12:56:13.344Z,13.90
2022-11-07T12:59:00.963Z,13.81
2022-11-07T13:02:11.277Z,13.77
2022-11-07T13:05:18.442Z,13.74
2022-11-07T13:08:26.999Z,13.64
2022-11-07T13:11:44.159Z,13.51
2022-11-07T13:14:43.534Z,13.41
2022-11-07T13:17:40.116Z,13.26
2022-11-07T13:20:28.498Z,13.25
2022-11-07T13:23:16.962Z,13.33
2022-11-07T13:26:20.268Z,13.36
2022-11-07T13:29:24.637Z,13.55
2022-11-07T13:32:15.447Z,13.85
2022-11-07T13:35:03.016Z,14.10
2022-11-07T13:37:53.915Z,14.26
2022-11-07T13:40:42.318Z,14.48
2022-11-07T13:43:33.744Z,14.62
2022-11-07T13:46:30.777Z,14.68
2022-11-07T13:49:24.939Z,14.68
2022-11-07T13:52:40.473Z,14.69
2022-11-07T13:55:34.441Z,14.64
2022-11-07T13:58:21.872Z,14.64
2022-11-07T14:01:12.849Z,14.64
2022-11-07T14:03:58.130Z,14.56
2022-11-07T14:06:44.002Z,14.47
2022-11-07T14:09:31.612Z,14.33
2022-11-07T14:12:22.215Z,14.12
2022-11-07T14:15:16.401Z,13.97
2022-11-07T14:18:03.367Z,13.96
2022-11-07T14:20:52.421Z,13.98
2022-11-07T14:23:44.909Z,13.98
2022-11-07T14:26:37.792Z,14.03
2022-11-07T14:29:25.732Z,14.02
2022-11-07T14:32:17.183Z,13.93
2022-11-07T14:35:08.503Z,13.84
2022-11-07T14:37:54.387Z,13.89
2022-11-07T14:40:42.082Z,13.84
2022-11-07T14:43:29.455Z,13.86
2022-11-07T14:46:25.521Z,13.86
2022-11-07T14:49:27.806Z,13.83
2022-11-07T14:52:23.083Z,13.81
2022-11-07T14:55:14.665Z,13.75
2022-11-07T14:58:05.390Z,13.68
2022-11-07T15:01:12.500Z,13.64
2022-11-07T15:04:14.631Z,13.59
2022-11-07T15:07:10.251Z,13.57
2022-11-07T15:09:58.749Z,13.54
2022-11-07T15:12:51.051Z,13.54
2022-11-07T15:15:37.452Z,13.58
2022-11-07T15:18:27.939Z,13.63
2022-11-07T15:21:34.161Z,13.72
2022-11-07T15:24:33.305Z,13.77
2022-11-07T15:27:21.626Z,13.74
2022-11-07T15:30:33.347Z,13.71
2022-11-07T15:33:19.905Z,13.68
2022-11-07T15:36:05.936Z,13.64
2022-11-07T15:38:52.659Z,13.61
2022-11-07T15:41:38.447Z,13.57
2022-11-07T15:44:23.998Z,13.51
2022-11-07T15:47:18.238Z,13.47
2022-11-07T15:50:06.700Z,13.42
2022-11-07T15:52:53.754Z,13.38
2022-11-07T15:55:39.400Z,13.36
2022-11-07T15:58:27.484Z,13.34
2022-11-07T16:01:14.130Z,13.31
2022-11-07T16:04:00.205Z,13.30
2022-11-07T16:06:47.699Z,13.26
2022-11-07T16:09:33.551Z,13.28
2022-11-07T16:12:19.721Z,13.31
2022-11-07T16:15:05.648Z,13.32
2022-11-07T16:17:51.134Z,13.34
2022-11-07T16:20:36.710Z,13.34
2022-11-07T16:23:22.223Z,13.32
2022-11-07T16:26:13.211Z,13.33
2022-11-07T16:28:58.613Z,13.33
2022-11-07T16:31:44.159Z,13.31
2022-11-07T16:34:29.584Z,13.32
2022-11-07T16:37:14.994Z,13.31
2022-11-07T16:40:00.310Z,13.26
2022-11-07T16:42:45.919Z,13.27
2022-11-07T16:45:31.666Z,13.33
2022-11-07T16:48:26.469Z,13.31
2022-11-07T16:51:17.596Z,13.30
2022-11-07T16:54:03.314Z,13.30
2022-11-07T16:56:51.431Z,13.24
2022-11-07T16:59:36.919Z,13.19
2022-11-07T17:02:25.373Z,13.15
2022-11-07T17:05:10.885Z,13.08
2022-11-07T17:07:56.526Z,13.00
2022-11-07T17:10:42.263Z,12.99
2022-11-07T17:13:28.334Z,12.98
2022-11-07T17:16:24.188Z,12.96
2022-11-07T17:19:14.005Z,12.93
2022-11-07T17:22:01.389Z,12.92
2022-11-07T17:24:47.410Z,12.94
2022-11-07T17:27:32.751Z,12.94
2022-11-07T17:30:20.935Z,12.94
2022-11-07T17:33:06.496Z,12.94
2022-11-07T17:35:54.948Z,12.98
2022-11-07T17:38:40.561Z,12.98
2022-11-07T17:41:30.093Z,13.03
2022-11-07T17:44:16.487Z,13.02
2022-11-07T17:47:02.805Z,12.99
2022-11-07T17:49:48.444Z,13.01
2022-11-07T17:52:33.861Z,12.98
2022-11-07T17:55:19.960Z,12.93
2022-11-07T17:58:05.665Z,12.84
2022-11-07T18:00:51.137Z,12.80
2022-11-07T18:03:36.439Z,12.74
2022-11-07T18:06:23.497Z,12.73
2022-11-07T18:09:14.361Z,12.67
2022-11-07T18:11:59.972Z,12.62
2022-11-07T18:14:45.323Z,12.60
2022-11-07T18:17:31.290Z,12.65
2022-11-07T18:20:17.036Z,12.64
2022-11-07T18:23:02.807Z,12.61
2022-11-07T18:25:48.192Z,12.51
2022-11-07T18:28:36.472Z,12.47
2022-11-07T18:31:23.656Z,12.46
2022-11-07T18:34:13.901Z,12.50
2022-11-07T18:36:59.208Z,12.51
2022-11-07T18:39:44.832Z,12.56
2022-11-07T18:42:31.139Z,12.56
2022-11-07T18:45:17.019Z,12.55
2022-11-07T18:48:02.836Z,12.54
2022-11-07T18:50:48.488Z,12.49
2022-11-07T18:53:34.222Z,12.47
2022-11-07T18:56:20.445Z,12.44
2022-11-07T18:59:05.881Z,12.41
2022-11-07T19:01:51.371Z,12.41
2022-11-07T19:04:37.018Z,12.41
2022-11-07T19:07:22.541Z,12.42
2022-11-07T19:10:08.312Z,12.44
2022-11-07T19:12:53.733Z,12.51
2022-11-07T19:15:39.906Z,12.55
2022-11-07T19:18:25.131Z,12.59
2022-11-07T19:21:18.985Z,12.58
2022-11-07T19:24:06.198Z,12.57
2022-11-07T19:26:51.841Z,12.52
2022-11-07T19:29:37.180Z,12.51
2022-11-07T19:32:22.639Z,12.50
2022-11-07T19:35:09.002Z,12.47
2022-11-07T19:37:54.406Z,12.50
2022-11-07T19:40:47.899Z,12.53
2022-11-07T19:43:33.502Z,12.55
2022-11-07T19:46:21.922Z,12.51
2022-11-07T19:49:08.098Z,12.46
2022-11-07T19:51:53.532Z,12.37
2022-11-07T19:54:39.590Z,12.30
2022-11-07T19:57:25.785Z,12.18
2022-11-07T20:00:12.848Z,12.06
2022-11-07T20:02:58.418Z,11.88
2022-11-07T20:05:44.341Z,11.75
2022-11-07T20:08:30.146Z,11.64
2022-11-07T20:11:17.364Z,11.59
2022-11-07T20:14:03.889Z,11.52
2022-11-07T20:16:49.881Z,11.45
2022-11-07T20:19:35.424Z,11.36
2022-11-07T20:22:21.146Z,11.29
2022-11-07T20:25:07.229Z,11.23
2022-11-07T20:27:53.016Z,11.22
2022-11-07T20:30:41.892Z,11.16
2022-11-07T20:33:27.285Z,11.10
2022-11-07T20:36:15.406Z,11.03
2022-11-07T20:39:01.777Z,11.09
2022-11-07T20:41:47.443Z,11.11
2022-11-07T20:44:32.894Z,11.15
2022-11-07T20:47:18.859Z,11.19
2022-11-07T20:50:04.554Z,11.19
2022-11-07T20:52:50.453Z,11.22
2022-11-07T20:55:41.183Z,11.25
2022-11-07T20:58:26.448Z,11.20
2022-11-07T21:01:20.593Z,11.20
2022-11-07T21:04:13.700Z,11.18
2022-11-07T21:06:59.291Z,11.20
2022-11-07T21:09:44.912Z,11.22
2022-11-07T21:12:31.003Z,11.21
2022-11-07T21:15:16.554Z,11.25
2022-11-07T21:18:04.885Z,11.33
2022-11-07T21:20:50.668Z,11.40
2022-11-07T21:23:37.821Z,11.46
2022-11-07T21:26:31.759Z,11.46
2022-11-07T21:29:17.811Z,11.40
2022-11-07T21:32:06.882Z,11.33
2022-11-07T21:34:52.416Z,11.26
2022-11-07T21:37:38.125Z,11.16
2022-11-07T21:40:25.367Z,11.07
2022-11-07T21:43:12.281Z,10.98
2022-11-07T21:46:15.637Z,10.93
2022-11-07T21:49:02.069Z,10.88
2022-11-07T21:51:50.407Z,10.88
2022-11-07T21:54:36.240Z,10.81
2022-11-07T21:57:22.035Z,10.79
2022-11-07T22:00:08.475Z,10.75
2022-11-07T22:02:54.038Z,10.68
2022-11-07T22:05:39.781Z,10.66
2022-11-07T22:08:25.383Z,10.58
2022-11-07T22:11:10.832Z,10.51
2022-11-07T22:13:56.352Z,10.47
2022-11-07T22:16:42.224Z,10.42
2022-11-07T22:19:28.114Z,10.38
2022-11-07T22:22:13.694Z,10.29
2022-11-07T22:24:59.134Z,10.20
2022-11-07T22:27:44.443Z,10.13
2022-11-07T22:30:29.837Z,10.08
2022-11-07T22:33:15.432Z,9.99
2022-11-07T22:36:01.723Z,9.91
2022-11-07T22:38:47.444Z,9.84
2022-11-07T22:41:33.188Z,9.69
2022-11-07T22:44:18.771Z,9.55
2022-11-07T22:47:04.110Z,9.41
2022-11-07T22:49:49.474Z,9.26
2022-11-07T22:52:34.849Z,9.13
2022-11-07T22:55:20.090Z,9.07
2022-11-07T22:58:06.180Z,8.88
2022-11-07T23:00:51.862Z,8.88
2022-11-07T23:03:37.258Z,8.79
2022-11-07T23:06:23.743Z,8.76
2022-11-07T23:09:14.544Z,8.70
2022-11-07T23:12:00.694Z,8.66
2022-11-07T23:14:46.983Z,8.65
2022-11-07T23:17:33.322Z,8.63
2022-11-07T23:20:48.208Z,8.63
2022-11-07T23:23:33.874Z,8.59
2022-11-07T23:26:20.080Z,8.65
2022-11-07T23:29:12.672Z,8.61
2022-11-07T23:31:58.095Z,8.57
2022-11-07T23:34:43.489Z,8.57
2022-11-07T23:37:28.739Z,8.51
2022-11-07T23:40:14.163Z,8.67
2022-11-07T23:42:59.470Z,8.66
2022-11-07T23:46:03.323Z,8.71
2022-11-07T23:49:13.300Z,8.78
2022-11-07T23:52:00.478Z,8.84
2022-11-07T23:55:04.730Z,8.88
2022-11-07T23:58:08.906Z,8.90
